sensor_id;sensor_type;location;lat;lon;timestamp;temperature;humidity
22838;DHT22;11585;51.450;-0.240;2023-03-01T00:00:18;8.10;99.90
22838;DHT22;11585;51.450;-0.240;2023-03-01T00:02:46;8.10;99.90
22838;DHT22;11585;51.450;-0.240;2023-03-01T00:05:12;8.10;99.90
22838;DHT22;11585;51.450;-0.240;2023-03-01T00:07:37;8.10;99.90
22838;DHT22;11585;51.450;-0.240;2023-03-01T00:10:03;8.10;99.90
22838;DHT22;11585;51.450;-0.240;2023-03-01T00:19:15;8.10;99.90
22838;DHT22;11585;51.450;-0.240;2023-03-01T00:21:42;8.10;99.90
22838;DHT22;11585;51.450;-0.240;2023-03-01T00:27:13;8.10;99.90
22838;DHT22;11585;51.450;-0.240;2023-03-01T00:29:38;8.00;99.90
22838;DHT22;11585;51.450;-0.240;2023-03-01T00:32:06;8.00;99.90
22838;DHT22;11585;51.450;-0.240;2023-03-01T00:34:32;8.00;99.90
22838;DHT22;11585;51.450;-0.240;2023-03-01T00:36:57;8.00;99.90
22838;DHT22;11585;51.450;-0.240;2023-03-01T00:39:30;8.00;99.90
22838;DHT22;11585;51.450;-0.240;2023-03-01T00:41:56;8.10;99.90
22838;DHT22;11585;51.450;-0.240;2023-03-01T00:44:22;8.10;99.90
22838;DHT22;11585;51.450;-0.240;2023-03-01T00:46:47;8.00;99.90
22838;DHT22;11585;51.450;-0.240;2023-03-01T00:49:13;8.00;99.90
22838;DHT22;11585;51.450;-0.240;2023-03-01T00:51:39;8.00;99.90
22838;DHT22;11585;51.450;-0.240;2023-03-01T00:57:30;8.10;99.90
22838;DHT22;11585;51.450;-0.240;2023-03-01T00:59:55;8.10;99.90
22838;DHT22;11585;51.450;-0.240;2023-03-01T01:05:10;8.00;99.90
22838;DHT22;11585;51.450;-0.240;2023-03-01T01:07:36;8.00;99.90
22838;DHT22;11585;51.450;-0.240;2023-03-01T01:10:02;8.00;99.90
22838;DHT22;11585;51.450;-0.240;2023-03-01T01:15:50;8.00;99.90
22838;DHT22;11585;51.450;-0.240;2023-03-01T01:18:15;8.00;99.90
22838;DHT22;11585;51.450;-0.240;2023-03-01T01:20:41;8.20;99.90
22838;DHT22;11585;51.450;-0.240;2023-03-01T01:26:30;8.00;99.90
22838;DHT22;11585;51.450;-0.240;2023-03-01T01:28:57;7.90;99.90
22838;DHT22;11585;51.450;-0.240;2023-03-01T01:31:23;8.00;99.90
22838;DHT22;11585;51.450;-0.240;2023-03-01T01:34:08;7.90;99.90
22838;DHT22;11585;51.450;-0.240;2023-03-01T01:36:37;8.00;99.90
22838;DHT22;11585;51.450;-0.240;2023-03-01T01:39:02;7.90;99.90
22838;DHT22;11585;51.450;-0.240;2023-03-01T01:41:29;7.90;99.90
22838;DHT22;11585;51.450;-0.240;2023-03-01T01:47:18;7.90;99.90
22838;DHT22;11585;51.450;-0.240;2023-03-01T01:49:53;7.90;99.90
22838;DHT22;11585;51.450;-0.240;2023-03-01T01:55:43;7.90;99.90
22838;DHT22;11585;51.450;-0.240;2023-03-01T01:58:29;7.90;99.90
22838;DHT22;11585;51.450;-0.240;2023-03-01T02:00:55;7.90;99.90
22838;DHT22;11585;51.450;-0.240;2023-03-01T02:03:33;7.90;99.90
22838;DHT22;11585;51.450;-0.240;2023-03-01T02:06:24;7.90;99.90
22838;DHT22;11585;51.450;-0.240;2023-03-01T02:08:57;8.00;99.90
22838;DHT22;11585;51.450;-0.240;2023-03-01T02:11:22;7.90;99.90
22838;DHT22;11585;51.450;-0.240;2023-03-01T02:17:12;7.80;99.90
22838;DHT22;11585;51.450;-0.240;2023-03-01T02:19:42;7.80;99.90
22838;DHT22;11585;51.450;-0.240;2023-03-01T02:22:30;7.80;99.90
22838;DHT22;11585;51.450;-0.240;2023-03-01T02:25:02;7.80;99.90
22838;DHT22;11585;51.450;-0.240;2023-03-01T02:27:46;7.80;99.90
22838;DHT22;11585;51.450;-0.240;2023-03-01T02:30:15;7.80;99.90
22838;DHT22;11585;51.450;-0.240;2023-03-01T02:35:46;7.80;99.90
22838;DHT22;11585;51.450;-0.240;2023-03-01T02:38:12;7.80;99.90
22838;DHT22;11585;51.450;-0.240;2023-03-01T02:40:38;7.80;99.90
22838;DHT22;11585;51.450;-0.240;2023-03-01T02:46:26;7.80;99.90
22838;DHT22;11585;51.450;-0.240;2023-03-01T02:48:55;7.80;99.90
22838;DHT22;11585;51.450;-0.240;2023-03-01T02:51:31;7.80;99.90
22838;DHT22;11585;51.450;-0.240;2023-03-01T02:57:40;7.80;99.90
22838;DHT22;11585;51.450;-0.240;2023-03-01T03:00:14;7.80;99.90
22838;DHT22;11585;51.450;-0.240;2023-03-01T03:06:06;7.80;99.90
22838;DHT22;11585;51.450;-0.240;2023-03-01T03:08:32;7.80;99.90
22838;DHT22;11585;51.450;-0.240;2023-03-01T03:10:57;7.80;99.90
22838;DHT22;11585;51.450;-0.240;2023-03-01T03:16:49;7.70;99.90
22838;DHT22;11585;51.450;-0.240;2023-03-01T03:19:16;7.70;99.90
22838;DHT22;11585;51.450;-0.240;2023-03-01T03:21:43;7.70;99.90
22838;DHT22;11585;51.450;-0.240;2023-03-01T03:27:30;7.70;99.90
22838;DHT22;11585;51.450;-0.240;2023-03-01T03:29:58;7.70;99.90
22838;DHT22;11585;51.450;-0.240;2023-03-01T03:32:23;7.70;99.90
22838;DHT22;11585;51.450;-0.240;2023-03-01T03:34:49;7.70;99.90
22838;DHT22;11585;51.450;-0.240;2023-03-01T03:37:15;7.70;99.90
22838;DHT22;11585;51.450;-0.240;2023-03-01T03:39:59;7.70;99.90
22838;DHT22;11585;51.450;-0.240;2023-03-01T03:45:48;7.70;99.90
22838;DHT22;11585;51.450;-0.240;2023-03-01T03:48:14;7.70;99.90
22838;DHT22;11585;51.450;-0.240;2023-03-01T03:50:40;7.70;99.90
22838;DHT22;11585;51.450;-0.240;2023-03-01T03:53:25;7.70;99.90
22838;DHT22;11585;51.450;-0.240;2023-03-01T03:55:53;7.70;99.90
22838;DHT22;11585;51.450;-0.240;2023-03-01T03:58:20;7.70;99.90
22838;DHT22;11585;51.450;-0.240;2023-03-01T04:00:49;7.70;99.90
22838;DHT22;11585;51.450;-0.240;2023-03-01T04:06:20;7.70;99.90
22838;DHT22;11585;51.450;-0.240;2023-03-01T04:08:45;7.70;99.90
22838;DHT22;11585;51.450;-0.240;2023-03-01T04:11:11;7.70;99.90
22838;DHT22;11585;51.450;-0.240;2023-03-01T04:13:55;7.70;99.90
22838;DHT22;11585;51.450;-0.240;2023-03-01T04:16:21;7.70;99.90
22838;DHT22;11585;51.450;-0.240;2023-03-01T04:18:47;7.60;99.90
22838;DHT22;11585;51.450;-0.240;2023-03-01T04:21:13;7.60;99.90
22838;DHT22;11585;51.450;-0.240;2023-03-01T04:23:40;7.60;99.90
22838;DHT22;11585;51.450;-0.240;2023-03-01T04:26:06;7.60;99.90
22838;DHT22;11585;51.450;-0.240;2023-03-01T04:28:37;7.60;99.90
22838;DHT22;11585;51.450;-0.240;2023-03-01T04:31:06;7.60;99.90
22838;DHT22;11585;51.450;-0.240;2023-03-01T04:33:43;7.60;99.90
22838;DHT22;11585;51.450;-0.240;2023-03-01T04:36:09;7.60;99.90
22838;DHT22;11585;51.450;-0.240;2023-03-01T04:38:37;7.60;99.90
22838;DHT22;11585;51.450;-0.240;2023-03-01T04:41:08;7.60;99.90
22838;DHT22;11585;51.450;-0.240;2023-03-01T04:43:37;7.60;99.90
22838;DHT22;11585;51.450;-0.240;2023-03-01T04:46:08;7.60;99.90
22838;DHT22;11585;51.450;-0.240;2023-03-01T04:48:36;7.80;99.90
22838;DHT22;11585;51.450;-0.240;2023-03-01T04:51:02;7.70;99.90
22838;DHT22;11585;51.450;-0.240;2023-03-01T04:53:28;7.60;99.90
22838;DHT22;11585;51.450;-0.240;2023-03-01T04:55:55;7.60;99.90
22838;DHT22;11585;51.450;-0.240;2023-03-01T04:58:23;7.60;99.90
22838;DHT22;11585;51.450;-0.240;2023-03-01T05:00:49;7.60;99.90
22838;DHT22;11585;51.450;-0.240;2023-03-01T05:03:17;9.10;99.90
22838;DHT22;11585;51.450;-0.240;2023-03-01T05:05:45;7.60;99.90
22838;DHT22;11585;51.450;-0.240;2023-03-01T05:08:11;7.60;99.90
22838;DHT22;11585;51.450;-0.240;2023-03-01T05:10:47;7.60;99.90
22838;DHT22;11585;51.450;-0.240;2023-03-01T05:16:36;7.60;99.90
22838;DHT22;11585;51.450;-0.240;2023-03-01T05:19:03;7.60;99.90
22838;DHT22;11585;51.450;-0.240;2023-03-01T05:21:38;7.50;99.90
22838;DHT22;11585;51.450;-0.240;2023-03-01T05:24:27;7.60;99.90
22838;DHT22;11585;51.450;-0.240;2023-03-01T05:26:53;7.50;99.90
22838;DHT22;11585;51.450;-0.240;2023-03-01T05:29:20;7.70;99.90
22838;DHT22;11585;51.450;-0.240;2023-03-01T05:31:51;7.70;99.90
22838;DHT22;11585;51.450;-0.240;2023-03-01T05:34:17;7.60;99.90
22838;DHT22;11585;51.450;-0.240;2023-03-01T05:36:43;7.50;99.90
22838;DHT22;11585;51.450;-0.240;2023-03-01T05:39:08;7.50;99.90
22838;DHT22;11585;51.450;-0.240;2023-03-01T05:41:34;7.50;99.90
22838;DHT22;11585;51.450;-0.240;2023-03-01T05:44:00;7.80;99.90
22838;DHT22;11585;51.450;-0.240;2023-03-01T05:46:25;8.30;99.90
22838;DHT22;11585;51.450;-0.240;2023-03-01T05:48:51;7.50;99.90
22838;DHT22;11585;51.450;-0.240;2023-03-01T05:51:16;8.30;99.90
22838;DHT22;11585;51.450;-0.240;2023-03-01T05:56:33;7.50;99.90
22838;DHT22;11585;51.450;-0.240;2023-03-01T05:59:00;7.50;99.90
22838;DHT22;11585;51.450;-0.240;2023-03-01T06:01:26;7.70;99.90
22838;DHT22;11585;51.450;-0.240;2023-03-01T06:06:57;7.50;99.90
22838;DHT22;11585;51.450;-0.240;2023-03-01T06:09:23;7.50;99.90
22838;DHT22;11585;51.450;-0.240;2023-03-01T06:11:48;7.50;99.90
22838;DHT22;11585;51.450;-0.240;2023-03-01T06:17:40;7.50;99.90
22838;DHT22;11585;51.450;-0.240;2023-03-01T06:25:43;7.40;99.90
22838;DHT22;11585;51.450;-0.240;2023-03-01T06:28:09;7.40;99.90
22838;DHT22;11585;51.450;-0.240;2023-03-01T06:30:34;7.40;99.90
22838;DHT22;11585;51.450;-0.240;2023-03-01T06:36:22;7.40;99.90
22838;DHT22;11585;51.450;-0.240;2023-03-01T06:38:48;7.40;99.90
22838;DHT22;11585;51.450;-0.240;2023-03-01T06:41:13;7.40;99.90
22838;DHT22;11585;51.450;-0.240;2023-03-01T06:43:39;7.40;99.90
22838;DHT22;11585;51.450;-0.240;2023-03-01T06:46:05;7.40;99.90
22838;DHT22;11585;51.450;-0.240;2023-03-01T06:48:32;7.60;99.90
22838;DHT22;11585;51.450;-0.240;2023-03-01T06:50:59;7.70;99.90
22838;DHT22;11585;51.450;-0.240;2023-03-01T06:53:31;7.40;99.90
22838;DHT22;11585;51.450;-0.240;2023-03-01T06:55:57;7.40;99.90
22838;DHT22;11585;51.450;-0.240;2023-03-01T06:58:24;7.40;99.90
22838;DHT22;11585;51.450;-0.240;2023-03-01T07:00:50;7.40;99.90
22838;DHT22;11585;51.450;-0.240;2023-03-01T07:03:15;7.50;99.90
22838;DHT22;11585;51.450;-0.240;2023-03-01T07:05:41;7.40;99.90
22838;DHT22;11585;51.450;-0.240;2023-03-01T07:08:07;7.40;99.90
22838;DHT22;11585;51.450;-0.240;2023-03-01T07:10:33;7.40;99.90
22838;DHT22;11585;51.450;-0.240;2023-03-01T07:13:00;7.70;99.90
22838;DHT22;11585;51.450;-0.240;2023-03-01T07:15:26;7.40;99.90
22838;DHT22;11585;51.450;-0.240;2023-03-01T07:17:52;7.40;99.90
22838;DHT22;11585;51.450;-0.240;2023-03-01T07:20:18;8.80;99.90
22838;DHT22;11585;51.450;-0.240;2023-03-01T07:22:46;8.00;99.90
22838;DHT22;11585;51.450;-0.240;2023-03-01T07:25:14;7.50;99.90
22838;DHT22;11585;51.450;-0.240;2023-03-01T07:27:42;7.40;99.90
22838;DHT22;11585;51.450;-0.240;2023-03-01T07:30:08;7.40;99.90
22838;DHT22;11585;51.450;-0.240;2023-03-01T07:32:54;7.50;99.90
22838;DHT22;11585;51.450;-0.240;2023-03-01T07:35:21;7.50;99.90
22838;DHT22;11585;51.450;-0.240;2023-03-01T07:37:46;7.40;99.90
22838;DHT22;11585;51.450;-0.240;2023-03-01T07:40:13;7.40;99.90
22838;DHT22;11585;51.450;-0.240;2023-03-01T07:42:42;7.80;99.90
22838;DHT22;11585;51.450;-0.240;2023-03-01T07:45:08;7.40;99.90
22838;DHT22;11585;51.450;-0.240;2023-03-01T07:47:34;7.50;99.90
22838;DHT22;11585;51.450;-0.240;2023-03-01T07:49:59;8.10;99.90
22838;DHT22;11585;51.450;-0.240;2023-03-01T07:52:48;7.60;99.90
22838;DHT22;11585;51.450;-0.240;2023-03-01T07:55:14;7.50;99.90
22838;DHT22;11585;51.450;-0.240;2023-03-01T07:57:40;7.40;99.90
22838;DHT22;11585;51.450;-0.240;2023-03-01T08:00:07;7.50;99.90
22838;DHT22;11585;51.450;-0.240;2023-03-01T08:02:35;7.50;99.90
22838;DHT22;11585;51.450;-0.240;2023-03-01T08:05:01;7.50;99.90
22838;DHT22;11585;51.450;-0.240;2023-03-01T08:07:26;7.50;99.90
22838;DHT22;11585;51.450;-0.240;2023-03-01T08:09:52;7.50;99.90
22838;DHT22;11585;51.450;-0.240;2023-03-01T08:12:18;7.50;99.90
22838;DHT22;11585;51.450;-0.240;2023-03-01T08:14:43;7.50;99.90
22838;DHT22;11585;51.450;-0.240;2023-03-01T08:17:09;7.60;99.90
22838;DHT22;11585;51.450;-0.240;2023-03-01T08:19:35;7.50;99.90
22838;DHT22;11585;51.450;-0.240;2023-03-01T08:22:19;8.50;99.90
22838;DHT22;11585;51.450;-0.240;2023-03-01T08:24:46;7.50;99.90
22838;DHT22;11585;51.450;-0.240;2023-03-01T08:27:11;7.40;99.90
22838;DHT22;11585;51.450;-0.240;2023-03-01T08:29:37;7.50;99.90
22838;DHT22;11585;51.450;-0.240;2023-03-01T08:32:03;7.50;99.90
22838;DHT22;11585;51.450;-0.240;2023-03-01T08:34:29;7.50;99.90
22838;DHT22;11585;51.450;-0.240;2023-03-01T08:36:56;7.50;99.90
22838;DHT22;11585;51.450;-0.240;2023-03-01T08:39:22;8.70;99.90
22838;DHT22;11585;51.450;-0.240;2023-03-01T08:41:48;7.70;99.90
22838;DHT22;11585;51.450;-0.240;2023-03-01T08:44:32;7.50;99.90
22838;DHT22;11585;51.450;-0.240;2023-03-01T08:46:58;7.50;99.90
22838;DHT22;11585;51.450;-0.240;2023-03-01T08:49:25;7.50;99.90
22838;DHT22;11585;51.450;-0.240;2023-03-01T08:51:51;7.50;99.90
22838;DHT22;11585;51.450;-0.240;2023-03-01T08:57:20;7.50;99.90
22838;DHT22;11585;51.450;-0.240;2023-03-01T08:59:46;7.60;99.90
22838;DHT22;11585;51.450;-0.240;2023-03-01T09:08:42;7.50;99.90
22838;DHT22;11585;51.450;-0.240;2023-03-01T09:11:10;7.60;99.90
22838;DHT22;11585;51.450;-0.240;2023-03-01T09:13:36;7.60;99.90
22838;DHT22;11585;51.450;-0.240;2023-03-01T09:16:03;7.60;99.90
22838;DHT22;11585;51.450;-0.240;2023-03-01T09:18:32;7.60;99.90
22838;DHT22;11585;51.450;-0.240;2023-03-01T09:23:41;7.70;99.90
22838;DHT22;11585;51.450;-0.240;2023-03-01T09:26:10;7.70;99.90
22838;DHT22;11585;51.450;-0.240;2023-03-01T09:28:36;7.70;99.90
22838;DHT22;11585;51.450;-0.240;2023-03-01T09:31:03;8.20;99.90
22838;DHT22;11585;51.450;-0.240;2023-03-01T09:33:31;7.70;99.90
22838;DHT22;11585;51.450;-0.240;2023-03-01T09:36:03;7.70;99.90
22838;DHT22;11585;51.450;-0.240;2023-03-01T09:38:29;7.80;99.90
22838;DHT22;11585;51.450;-0.240;2023-03-01T09:40:55;7.90;99.90
22838;DHT22;11585;51.450;-0.240;2023-03-01T09:43:46;7.90;99.90
22838;DHT22;11585;51.450;-0.240;2023-03-01T09:46:14;7.90;99.90
22838;DHT22;11585;51.450;-0.240;2023-03-01T09:48:51;8.70;99.90
22838;DHT22;11585;51.450;-0.240;2023-03-01T09:51:23;8.00;99.90
22838;DHT22;11585;51.450;-0.240;2023-03-01T10:02:39;8.10;99.90
22838;DHT22;11585;51.450;-0.240;2023-03-01T10:08:24;8.20;99.90
22838;DHT22;11585;51.450;-0.240;2023-03-01T10:10:52;8.20;99.90
22838;DHT22;11585;51.450;-0.240;2023-03-01T10:16:51;8.20;99.90
22838;DHT22;11585;51.450;-0.240;2023-03-01T10:19:43;8.20;99.90
22838;DHT22;11585;51.450;-0.240;2023-03-01T10:25:47;8.30;99.90
22838;DHT22;11585;51.450;-0.240;2023-03-01T10:30:47;8.30;99.90
22838;DHT22;11585;51.450;-0.240;2023-03-01T10:33:26;8.30;99.90
22838;DHT22;11585;51.450;-0.240;2023-03-01T10:35:53;8.20;99.90
22838;DHT22;11585;51.450;-0.240;2023-03-01T10:38:20;8.40;99.90
22838;DHT22;11585;51.450;-0.240;2023-03-01T10:41:06;8.40;99.90
22838;DHT22;11585;51.450;-0.240;2023-03-01T10:43:52;8.30;99.90
22838;DHT22;11585;51.450;-0.240;2023-03-01T10:49:20;8.30;99.90
22838;DHT22;11585;51.450;-0.240;2023-03-01T10:51:52;8.40;99.90
22838;DHT22;11585;51.450;-0.240;2023-03-01T10:54:28;8.40;99.90
22838;DHT22;11585;51.450;-0.240;2023-03-01T10:56:57;8.40;99.90
22838;DHT22;11585;51.450;-0.240;2023-03-01T10:59:27;8.40;99.90
22838;DHT22;11585;51.450;-0.240;2023-03-01T11:02:27;8.40;99.90
22838;DHT22;11585;51.450;-0.240;2023-03-01T11:08:07;8.40;99.90
22838;DHT22;11585;51.450;-0.240;2023-03-01T11:10:36;8.50;99.90
22838;DHT22;11585;51.450;-0.240;2023-03-01T11:13:15;8.40;99.90
22838;DHT22;11585;51.450;-0.240;2023-03-01T11:15:42;8.60;99.90
22838;DHT22;11585;51.450;-0.240;2023-03-01T11:18:21;8.40;99.90
22838;DHT22;11585;51.450;-0.240;2023-03-01T11:20:48;8.50;99.90
22838;DHT22;11585;51.450;-0.240;2023-03-01T11:26:09;8.40;99.90
22838;DHT22;11585;51.450;-0.240;2023-03-01T11:28:37;8.40;99.90
22838;DHT22;11585;51.450;-0.240;2023-03-01T11:31:06;8.90;99.90
22838;DHT22;11585;51.450;-0.240;2023-03-01T11:39:37;8.40;99.90
22838;DHT22;11585;51.450;-0.240;2023-03-01T11:45:33;8.40;99.90
22838;DHT22;11585;51.450;-0.240;2023-03-01T11:50:50;8.40;99.90
22838;DHT22;11585;51.450;-0.240;2023-03-01T11:56:50;8.50;99.90
22838;DHT22;11585;51.450;-0.240;2023-03-01T12:08:42;8.50;99.90
22838;DHT22;11585;51.450;-0.240;2023-03-01T12:17:06;8.50;99.90
22838;DHT22;11585;51.450;-0.240;2023-03-01T12:19:56;8.50;99.90
22838;DHT22;11585;51.450;-0.240;2023-03-01T12:25:41;8.50;99.90
22838;DHT22;11585;51.450;-0.240;2023-03-01T12:48:31;9.20;99.90
22838;DHT22;11585;51.450;-0.240;2023-03-01T12:51:10;8.60;99.90
22838;DHT22;11585;51.450;-0.240;2023-03-01T12:53:57;8.10;99.90
22838;DHT22;11585;51.450;-0.240;2023-03-01T12:56:27;8.60;99.90
22838;DHT22;11585;51.450;-0.240;2023-03-01T13:01:51;9.50;99.90
22838;DHT22;11585;51.450;-0.240;2023-03-01T13:10:34;8.70;99.90
22838;DHT22;11585;51.450;-0.240;2023-03-01T13:21:40;9.30;99.90
22838;DHT22;11585;51.450;-0.240;2023-03-01T13:24:33;8.90;99.90
22838;DHT22;11585;51.450;-0.240;2023-03-01T13:35:44;8.80;99.90
22838;DHT22;11585;51.450;-0.240;2023-03-01T13:41:04;8.80;99.90
22838;DHT22;11585;51.450;-0.240;2023-03-01T13:46:23;9.50;99.90
22838;DHT22;11585;51.450;-0.240;2023-03-01T13:48:55;9.70;99.90
22838;DHT22;11585;51.450;-0.240;2023-03-01T13:51:26;8.90;99.90
22838;DHT22;11585;51.450;-0.240;2023-03-01T13:57:22;8.90;99.90
22838;DHT22;11585;51.450;-0.240;2023-03-01T13:59:49;9.50;99.90
22838;DHT22;11585;51.450;-0.240;2023-03-01T14:05:38;8.90;99.90
22838;DHT22;11585;51.450;-0.240;2023-03-01T14:08:04;8.90;99.90
22838;DHT22;11585;51.450;-0.240;2023-03-01T14:13:48;8.90;99.90
22838;DHT22;11585;51.450;-0.240;2023-03-01T14:19:17;9.00;99.90
22838;DHT22;11585;51.450;-0.240;2023-03-01T14:21:44;9.00;99.90
22838;DHT22;11585;51.450;-0.240;2023-03-01T14:27:36;9.30;99.90
22838;DHT22;11585;51.450;-0.240;2023-03-01T14:30:35;9.60;99.90
22838;DHT22;11585;51.450;-0.240;2023-03-01T14:33:05;9.00;99.90
22838;DHT22;11585;51.450;-0.240;2023-03-01T14:35:34;9.00;99.90
22838;DHT22;11585;51.450;-0.240;2023-03-01T14:38:00;9.20;99.90
22838;DHT22;11585;51.450;-0.240;2023-03-01T14:43:21;9.10;99.90
22838;DHT22;11585;51.450;-0.240;2023-03-01T14:45:48;9.10;99.90
22838;DHT22;11585;51.450;-0.240;2023-03-01T14:48:15;9.00;99.90
22838;DHT22;11585;51.450;-0.240;2023-03-01T14:50:42;9.10;99.90
22838;DHT22;11585;51.450;-0.240;2023-03-01T14:56:44;9.10;99.90
22838;DHT22;11585;51.450;-0.240;2023-03-01T14:59:11;9.10;99.90
22838;DHT22;11585;51.450;-0.240;2023-03-01T15:01:37;9.20;99.90
22838;DHT22;11585;51.450;-0.240;2023-03-01T15:07:36;9.20;99.90
22838;DHT22;11585;51.450;-0.240;2023-03-01T15:10:05;10.30;99.90
22838;DHT22;11585;51.450;-0.240;2023-03-01T15:18:35;9.10;99.90
22838;DHT22;11585;51.450;-0.240;2023-03-01T15:21:14;9.20;99.90
22838;DHT22;11585;51.450;-0.240;2023-03-01T15:30:29;9.20;99.90
22838;DHT22;11585;51.450;-0.240;2023-03-01T15:36:44;9.20;99.90
22838;DHT22;11585;51.450;-0.240;2023-03-01T15:39:42;9.20;99.90
22838;DHT22;11585;51.450;-0.240;2023-03-01T15:47:40;9.40;99.90
22838;DHT22;11585;51.450;-0.240;2023-03-01T15:50:21;9.10;99.90
22838;DHT22;11585;51.450;-0.240;2023-03-01T15:56:29;9.30;99.90
22838;DHT22;11585;51.450;-0.240;2023-03-01T15:58:59;9.30;99.90
22838;DHT22;11585;51.450;-0.240;2023-03-01T16:01:26;9.20;99.90
22838;DHT22;11585;51.450;-0.240;2023-03-01T16:03:53;9.30;99.90
22838;DHT22;11585;51.450;-0.240;2023-03-01T16:06:19;9.30;99.90
22838;DHT22;11585;51.450;-0.240;2023-03-01T16:08:45;9.30;99.90
22838;DHT22;11585;51.450;-0.240;2023-03-01T16:11:17;9.30;99.90
22838;DHT22;11585;51.450;-0.240;2023-03-01T16:17:05;9.30;99.90
22838;DHT22;11585;51.450;-0.240;2023-03-01T16:19:31;9.30;99.90
22838;DHT22;11585;51.450;-0.240;2023-03-01T16:22:16;9.30;99.90
22838;DHT22;11585;51.450;-0.240;2023-03-01T16:24:41;9.30;99.90
22838;DHT22;11585;51.450;-0.240;2023-03-01T16:27:07;9.30;99.90
22838;DHT22;11585;51.450;-0.240;2023-03-01T16:29:33;9.30;99.90
22838;DHT22;11585;51.450;-0.240;2023-03-01T16:32:03;9.50;99.90
22838;DHT22;11585;51.450;-0.240;2023-03-01T16:34:29;9.30;99.90
22838;DHT22;11585;51.450;-0.240;2023-03-01T16:36:54;9.40;99.90
22838;DHT22;11585;51.450;-0.240;2023-03-01T16:39:20;9.30;99.90
22838;DHT22;11585;51.450;-0.240;2023-03-01T16:41:45;9.70;99.90
22838;DHT22;11585;51.450;-0.240;2023-03-01T16:47:34;9.30;99.90
22838;DHT22;11585;51.450;-0.240;2023-03-01T16:50:00;9.40;99.90
22838;DHT22;11585;51.450;-0.240;2023-03-01T16:55:53;9.40;99.90
22838;DHT22;11585;51.450;-0.240;2023-03-01T16:58:22;9.30;99.90
22838;DHT22;11585;51.450;-0.240;2023-03-01T17:00:54;9.30;99.90
22838;DHT22;11585;51.450;-0.240;2023-03-01T17:06:26;9.30;99.90
22838;DHT22;11585;51.450;-0.240;2023-03-01T17:08:52;9.30;99.90
22838;DHT22;11585;51.450;-0.240;2023-03-01T17:11:19;9.30;99.90
22838;DHT22;11585;51.450;-0.240;2023-03-01T17:17:10;9.30;99.90
22838;DHT22;11585;51.450;-0.240;2023-03-01T17:19:36;9.30;99.90
22838;DHT22;11585;51.450;-0.240;2023-03-01T17:25:28;9.30;99.90
22838;DHT22;11585;51.450;-0.240;2023-03-01T17:27:54;9.30;99.90
22838;DHT22;11585;51.450;-0.240;2023-03-01T17:30:20;9.40;99.90
22838;DHT22;11585;51.450;-0.240;2023-03-01T17:36:07;9.30;99.90
22838;DHT22;11585;51.450;-0.240;2023-03-01T17:38:35;9.20;99.90
22838;DHT22;11585;51.450;-0.240;2023-03-01T17:41:02;9.30;99.90
22838;DHT22;11585;51.450;-0.240;2023-03-01T17:43:28;9.30;99.90
22838;DHT22;11585;51.450;-0.240;2023-03-01T17:45:55;9.30;99.90
22838;DHT22;11585;51.450;-0.240;2023-03-01T17:48:21;9.30;99.90
22838;DHT22;11585;51.450;-0.240;2023-03-01T17:50:47;9.30;99.90
22838;DHT22;11585;51.450;-0.240;2023-03-01T17:59:56;9.30;99.90
22838;DHT22;11585;51.450;-0.240;2023-03-01T18:05:34;9.30;99.90
22838;DHT22;11585;51.450;-0.240;2023-03-01T18:07:59;9.30;99.90
22838;DHT22;11585;51.450;-0.240;2023-03-01T18:10:25;9.30;99.90
22838;DHT22;11585;51.450;-0.240;2023-03-01T18:12:53;9.30;99.90
22838;DHT22;11585;51.450;-0.240;2023-03-01T18:15:19;9.30;99.90
22838;DHT22;11585;51.450;-0.240;2023-03-01T18:17:44;9.30;99.90
22838;DHT22;11585;51.450;-0.240;2023-03-01T18:20:10;9.30;99.90
22838;DHT22;11585;51.450;-0.240;2023-03-01T18:22:38;9.30;99.90
22838;DHT22;11585;51.450;-0.240;2023-03-01T18:25:04;9.30;99.90
22838;DHT22;11585;51.450;-0.240;2023-03-01T18:27:30;9.30;99.90
22838;DHT22;11585;51.450;-0.240;2023-03-01T18:29:55;9.30;99.90
22838;DHT22;11585;51.450;-0.240;2023-03-01T18:35:09;9.20;99.90
22838;DHT22;11585;51.450;-0.240;2023-03-01T18:37:35;9.30;99.90
22838;DHT22;11585;51.450;-0.240;2023-03-01T18:40:01;9.30;99.90
22838;DHT22;11585;51.450;-0.240;2023-03-01T18:45:54;9.30;99.90
22838;DHT22;11585;51.450;-0.240;2023-03-01T18:48:19;9.20;99.90
22838;DHT22;11585;51.450;-0.240;2023-03-01T18:50:45;9.30;99.90
22838;DHT22;11585;51.450;-0.240;2023-03-01T18:56:14;9.20;99.90
22838;DHT22;11585;51.450;-0.240;2023-03-01T18:58:41;9.30;99.90
22838;DHT22;11585;51.450;-0.240;2023-03-01T19:01:21;9.20;99.90
22838;DHT22;11585;51.450;-0.240;2023-03-01T19:03:47;9.20;99.90
22838;DHT22;11585;51.450;-0.240;2023-03-01T19:06:13;9.30;99.90
22838;DHT22;11585;51.450;-0.240;2023-03-01T19:08:39;9.20;99.90
22838;DHT22;11585;51.450;-0.240;2023-03-01T19:11:06;9.20;99.90
22838;DHT22;11585;51.450;-0.240;2023-03-01T19:13:52;9.20;99.90
22838;DHT22;11585;51.450;-0.240;2023-03-01T19:16:21;9.20;99.90
22838;DHT22;11585;51.450;-0.240;2023-03-01T19:18:47;9.20;99.90
22838;DHT22;11585;51.450;-0.240;2023-03-01T19:21:15;9.30;99.90
22838;DHT22;11585;51.450;-0.240;2023-03-01T19:23:43;9.40;99.90
22838;DHT22;11585;51.450;-0.240;2023-03-01T19:26:11;9.20;99.90
22838;DHT22;11585;51.450;-0.240;2023-03-01T19:28:37;9.20;99.90
22838;DHT22;11585;51.450;-0.240;2023-03-01T19:31:11;9.20;99.90
22838;DHT22;11585;51.450;-0.240;2023-03-01T19:36:59;9.20;99.90
22838;DHT22;11585;51.450;-0.240;2023-03-01T19:39:25;9.10;99.90
22838;DHT22;11585;51.450;-0.240;2023-03-01T19:41:52;9.10;99.90
22838;DHT22;11585;51.450;-0.240;2023-03-01T19:44:21;9.30;99.90
22838;DHT22;11585;51.450;-0.240;2023-03-01T19:46:52;9.10;99.90
22838;DHT22;11585;51.450;-0.240;2023-03-01T19:49:18;9.10;99.90
22838;DHT22;11585;51.450;-0.240;2023-03-01T19:51:44;9.10;99.90
22838;DHT22;11585;51.450;-0.240;2023-03-01T19:54:28;9.20;99.90
22838;DHT22;11585;51.450;-0.240;2023-03-01T19:56:54;9.10;99.90
22838;DHT22;11585;51.450;-0.240;2023-03-01T19:59:20;9.00;99.90
22838;DHT22;11585;51.450;-0.240;2023-03-01T20:01:49;9.10;99.90
22838;DHT22;11585;51.450;-0.240;2023-03-01T20:04:16;9.00;99.90
22838;DHT22;11585;51.450;-0.240;2023-03-01T20:06:44;9.10;99.90
22838;DHT22;11585;51.450;-0.240;2023-03-01T20:09:12;9.10;99.90
22838;DHT22;11585;51.450;-0.240;2023-03-01T20:11:38;9.00;99.90
22838;DHT22;11585;51.450;-0.240;2023-03-01T20:14:25;9.10;99.90
22838;DHT22;11585;51.450;-0.240;2023-03-01T20:16:51;9.10;99.90
22838;DHT22;11585;51.450;-0.240;2023-03-01T20:19:17;9.00;99.90
22838;DHT22;11585;51.450;-0.240;2023-03-01T20:21:42;9.00;99.90
22838;DHT22;11585;51.450;-0.240;2023-03-01T20:24:28;9.00;99.90
22838;DHT22;11585;51.450;-0.240;2023-03-01T20:26:57;9.00;99.90
22838;DHT22;11585;51.450;-0.240;2023-03-01T20:29:22;9.00;99.90
22838;DHT22;11585;51.450;-0.240;2023-03-01T20:31:48;9.00;99.90
22838;DHT22;11585;51.450;-0.240;2023-03-01T20:34:16;9.00;99.90
22838;DHT22;11585;51.450;-0.240;2023-03-01T20:36:41;9.00;99.90
22838;DHT22;11585;51.450;-0.240;2023-03-01T20:39:09;9.00;99.90
22838;DHT22;11585;51.450;-0.240;2023-03-01T20:41:37;8.90;99.90
22838;DHT22;11585;51.450;-0.240;2023-03-01T20:44:03;9.00;99.90
22838;DHT22;11585;51.450;-0.240;2023-03-01T20:46:32;8.90;99.90
22838;DHT22;11585;51.450;-0.240;2023-03-01T20:49:01;8.90;99.90